Time;durP1;ratioP1;P1;durP2;ratioP2;P2;SDS_P1;SDS_P2;PMS_P1;PMS_P2;Temp;Humidity;BMP_temperature;BMP_pressure;BME280_temperature;BME280_humidity;BME280_pressure;Samples;Min_cycle;Max_cycle;Signal;HPM_P1;HPM_P2
2022/01/02 00:00:40;;;;;;;30.40;20.20;;;8.00;99.90;;;;;;2090087;28;20112;-71
2022/01/02 00:01:44;;;;;;;34.85;21.33;;;8.00;99.90;;;;;;2085377;28;20433;-72
2022/01/02 00:02:50;;;;;;;36.65;22.90;;;8.00;99.90;;;;;;2079054;28;20026;-74
2022/01/02 00:03:52;;;;;;;38.90;23.52;;;8.00;99.90;;;;;;2075249;28;20120;-73
2022/01/02 00:05:01;;;;;;;38.88;24.80;;;8.00;99.90;;;;;;2089036;28;20028;-75
2022/01/02 00:06:03;;;;;;;39.47;25.33;;;7.90;99.90;;;;;;2081400;28;20442;-73
2022/01/02 00:07:06;;;;;;;37.15;24.73;;;7.90;99.90;;;;;;2065940;28;20062;-73
2022/01/02 00:08:09;;;;;;;38.78;24.05;;;7.90;99.90;;;;;;2090573;28;20052;-72
2022/01/02 00:09:12;;;;;;;36.83;24.05;;;7.90;99.90;;;;;;2088904;28;20049;-73
2022/01/02 00:10:13;;;;;;;34.90;23.00;;;7.90;99.90;;;;;;2083167;28;20049;-72
2022/01/02 00:11:18;;;;;;;34.03;23.27;;;7.90;99.90;;;;;;2089391;28;20436;-75
2022/01/02 00:12:25;;;;;;;34.85;23.27;;;7.90;99.90;;;;;;2083423;28;20029;-72
2022/01/02 00:13:35;;;;;;;34.75;22.63;;;7.90;99.90;;;;;;2086653;28;20436;-72
2022/01/02 00:14:41;;;;;;;37.22;23.27;;;7.90;99.90;;;;;;2077884;28;20048;-73
2022/01/02 00:15:42;;;;;;;41.85;25.25;;;7.90;99.90;;;;;;2087606;28;20067;-72
2022/01/02 00:16:45;;;;;;;43.55;25.23;;;7.90;99.90;;;;;;2090874;28;20033;-75
2022/01/02 00:17:49;;;;;;;41.83;25.52;;;7.90;99.90;;;;;;2083679;28;20053;-75
2022/01/02 00:19:03;;;;;;;44.58;26.15;;;7.90;99.90;;;;;;2086956;28;20650;-74
2022/01/02 00:20:11;;;;;;;40.70;24.80;;;7.90;99.90;;;;;;2083233;28;20041;-76
2022/01/02 00:21:12;;;;;;;42.03;25.35;;;7.90;99.90;;;;;;2089990;28;20037;-74
2022/01/02 00:22:15;;;;;;;40.25;24.65;;;7.90;99.90;;;;;;2089614;28;20044;-73
2022/01/02 00:23:22;;;;;;;39.55;24.60;;;7.90;99.90;;;;;;2088168;28;20841;-73
2022/01/02 00:24:23;;;;;;;40.47;24.58;;;7.90;99.90;;;;;;2084046;28;20021;-70
2022/01/02 00:25:33;;;;;;;38.22;24.15;;;7.90;99.90;;;;;;2086674;28;20038;-74
2022/01/02 00:26:39;;;;;;;37.72;23.63;;;8.00;99.90;;;;;;2085611;28;20021;-71
2022/01/02 00:27:41;;;;;;;39.13;24.80;;;8.00;99.90;;;;;;2090222;28;20079;-74
2022/01/02 00:28:45;;;;;;;39.15;24.45;;;7.90;99.90;;;;;;2090602;28;20029;-73
2022/01/02 00:29:46;;;;;;;39.08;24.88;;;7.90;99.90;;;;;;2075530;28;20412;-74
2022/01/02 00:30:48;;;;;;;40.15;25.27;;;7.90;99.90;;;;;;2079151;28;20057;-73
2022/01/02 00:31:50;;;;;;;38.05;24.67;;;7.90;99.90;;;;;;2075598;28;20089;-72
2022/01/02 00:32:52;;;;;;;39.10;24.75;;;7.90;99.90;;;;;;2079797;28;20517;-74
2022/01/02 00:33:53;;;;;;;38.97;24.60;;;7.90;99.90;;;;;;2074537;28;20030;-72
2022/01/02 00:34:55;;;;;;;38.55;24.60;;;7.90;99.90;;;;;;2080747;28;20083;-73
2022/01/02 00:35:56;;;;;;;40.55;24.90;;;7.90;99.90;;;;;;2080278;28;20540;-73
2022/01/02 00:36:56;;;;;;;41.22;25.80;;;7.80;99.90;;;;;;2087352;28;20028;-72
2022/01/02 00:37:57;;;;;;;39.13;24.60;;;7.80;99.90;;;;;;2083000;28;20049;-72
2022/01/02 00:38:58;;;;;;;34.92;23.08;;;7.80;99.90;;;;;;2087987;28;20075;-72
2022/01/02 00:39:59;;;;;;;35.28;22.35;;;7.80;99.90;;;;;;2081391;28;20040;-72
2022/01/02 00:41:00;;;;;;;30.30;21.55;;;7.80;99.90;;;;;;2089903;28;20069;-74
2022/01/02 00:42:05;;;;;;;32.72;22.00;;;7.70;99.90;;;;;;2072414;28;20170;-73
2022/01/02 00:43:13;;;;;;;30.52;20.65;;;7.70;99.90;;;;;;2066094;28;20034;-73
2022/01/02 00:44:36;;;;;;;34.17;21.40;;;7.70;99.90;;;;;;2090034;28;20013;-73
2022/01/02 00:45:44;;;;;;;31.90;20.52;;;7.70;99.90;;;;;;2084167;28;20026;-75
2022/01/02 00:46:52;;;;;;;30.10;20.15;;;7.60;99.90;;;;;;2073240;28;20299;-74
2022/01/02 00:47:56;;;;;;;28.90;20.45;;;7.60;99.90;;;;;;2079545;28;20034;-72
2022/01/02 00:49:02;;;;;;;29.20;19.67;;;7.60;99.90;;;;;;2081090;28;20103;-72
2022/01/02 00:50:15;;;;;;;31.00;20.00;;;7.60;99.90;;;;;;2074489;28;20041;-72
2022/01/02 00:51:43;;;;;;;31.30;20.15;;;7.60;99.90;;;;;;2089192;28;20422;-72
2022/01/02 00:52:46;;;;;;;30.92;19.63;;;7.60;99.90;;;;;;2079669;28;20076;-74
2022/01/02 00:53:48;;;;;;;28.85;20.30;;;7.60;99.90;;;;;;2066685;28;20062;-73
2022/01/02 00:54:53;;;;;;;31.55;20.48;;;7.60;99.90;;;;;;2085188;28;20021;-72
2022/01/02 00:56:00;;;;;;;31.52;20.40;;;7.50;99.90;;;;;;2075295;28;20124;-74
2022/01/02 00:57:06;;;;;;;32.60;20.52;;;7.50;99.90;;;;;;2057175;28;20649;-73
2022/01/02 00:58:13;;;;;;;28.75;19.60;;;7.50;99.90;;;;;;2066633;28;20739;-74
2022/01/02 01:00:03;;;;;;;29.25;19.27;;;7.50;99.90;;;;;;2088203;28;20111;-73
2022/01/02 01:01:14;;;;;;;28.23;18.23;;;7.40;99.90;;;;;;2060988;28;20048;-72
2022/01/02 01:02:18;;;;;;;28.88;18.75;;;7.40;99.90;;;;;;2089936;28;20021;-74
2022/01/02 01:03:26;;;;;;;27.88;18.08;;;7.40;99.90;;;;;;2086340;28;20029;-73
2022/01/02 01:04:30;;;;;;;28.15;18.42;;;7.40;99.90;;;;;;2072425;28;20036;-73
2022/01/02 01:05:34;;;;;;;27.65;18.50;;;7.40;99.90;;;;;;2081596;28;20588;-72
2022/01/02 01:06:39;;;;;;;24.13;17.17;;;7.40;99.90;;;;;;2088651;28;20123;-72
2022/01/02 01:07:41;;;;;;;27.05;17.80;;;7.40;99.90;;;;;;2085330;28;20029;-73
2022/01/02 01:08:43;;;;;;;29.25;18.15;;;7.40;99.90;;;;;;2077421;28;20464;-71
2022/01/02 01:09:46;;;;;;;28.17;17.75;;;7.40;99.90;;;;;;2083396;28;20036;-72
2022/01/02 01:10:50;;;;;;;29.67;17.67;;;7.50;99.90;;;;;;2091253;28;20033;-72
2022/01/02 01:11:51;;;;;;;27.83;18.63;;;7.50;99.90;;;;;;2089130;28;20025;-72
2022/01/02 01:12:54;;;;;;;29.20;18.35;;;7.50;99.90;;;;;;2089177;28;20029;-73
2022/01/02 01:13:57;;;;;;;27.48;17.98;;;7.50;99.90;;;;;;2089886;28;20032;-72
2022/01/02 01:14:58;;;;;;;25.25;16.83;;;7.40;99.90;;;;;;2087632;28;20420;-74
2022/01/02 01:15:59;;;;;;;24.63;16.52;;;7.50;99.90;;;;;;2080301;28;20034;-73
2022/01/02 01:17:00;;;;;;;24.38;16.05;;;7.50;99.90;;;;;;2080211;28;20061;-71
2022/01/02 01:18:02;;;;;;;23.25;15.98;;;7.40;99.90;;;;;;2080057;28;20025;-73
2022/01/02 01:19:03;;;;;;;22.55;16.02;;;7.40;99.90;;;;;;2089066;28;20091;-73
2022/01/02 01:20:07;;;;;;;23.48;15.75;;;7.40;99.90;;;;;;2089787;28;20066;-72
2022/01/02 01:21:08;;;;;;;22.35;14.80;;;7.40;99.90;;;;;;2090232;28;20041;-73
2022/01/02 01:22:09;;;;;;;21.90;15.45;;;7.50;99.90;;;;;;2089548;28;20032;-75
2022/01/02 01:23:15;;;;;;;21.35;14.63;;;7.40;99.90;;;;;;2080859;28;20208;-74
2022/01/02 01:24:17;;;;;;;21.58;14.10;;;7.40;99.90;;;;;;2081522;28;20770;-73
2022/01/02 01:25:19;;;;;;;21.40;14.48;;;7.50;99.90;;;;;;2088812;28;20053;-74
2022/01/02 01:26:20;;;;;;;20.00;14.18;;;7.50;99.90;;;;;;2080726;28;20021;-74
2022/01/02 01:27:21;;;;;;;20.15;14.25;;;7.50;99.90;;;;;;2080542;28;20497;-72
2022/01/02 01:28:22;;;;;;;21.08;14.35;;;7.50;99.90;;;;;;2088215;28;20013;-71
2022/01/02 01:29:22;;;;;;;19.00;13.98;;;7.50;99.90;;;;;;2088067;28;20515;-71
2022/01/02 01:30:26;;;;;;;19.27;13.73;;;7.50;99.90;;;;;;2088025;28;20500;-71
2022/01/02 01:31:26;;;;;;;18.77;13.45;;;7.50;99.90;;;;;;2080391;28;20033;-71
2022/01/02 01:32:27;;;;;;;19.30;13.27;;;7.50;99.90;;;;;;2088202;28;20037;-71
2022/01/02 01:33:27;;;;;;;18.48;13.10;;;7.50;99.90;;;;;;2079973;28;20146;-73
2022/01/02 01:34:28;;;;;;;18.58;13.63;;;7.60;99.90;;;;;;2079940;28;20064;-73
2022/01/02 01:35:29;;;;;;;19.73;13.13;;;7.60;99.90;;;;;;2080076;28;20064;-72
2022/01/02 01:36:29;;;;;;;17.92;13.27;;;7.50;99.90;;;;;;2079918;28;20109;-73
2022/01/02 01:37:30;;;;;;;18.95;13.25;;;7.50;99.90;;;;;;2088456;28;20033;-71
2022/01/02 01:38:31;;;;;;;21.73;13.93;;;7.50;99.90;;;;;;2088327;28;20044;-71
2022/01/02 01:39:32;;;;;;;19.38;13.55;;;7.50;99.90;;;;;;2087955;28;20069;-71
2022/01/02 01:40:43;;;;;;;18.95;13.63;;;7.50;99.90;;;;;;2088393;28;20037;-71
2022/01/02 01:41:46;;;;;;;18.42;12.90;;;7.50;99.90;;;;;;2088351;28;20404;-70
2022/01/02 01:43:01;;;;;;;20.35;13.55;;;7.40;99.90;;;;;;2088510;28;20036;-71
2022/01/02 01:46:23;;;;;;;19.90;13.80;;;7.40;99.90;;;;;;2080945;28;20025;-72
2022/01/02 01:47:24;;;;;;;22.90;14.82;;;7.40;99.90;;;;;;2088478;28;20055;-72
2022/01/02 01:48:24;;;;;;;21.98;13.60;;;7.30;99.90;;;;;;2088390;28;20048;-73
2022/01/02 01:49:29;;;;;;;20.35;14.55;;;7.30;99.90;;;;;;2087884;28;20116;-73
2022/01/02 01:50:35;;;;;;;22.23;15.27;;;7.30;99.90;;;;;;2080883;28;20477;-72
2022/01/02 01:51:36;;;;;;;22.00;14.98;;;7.30;99.90;;;;;;2088290;28;20082;-75
2022/01/02 01:52:36;;;;;;;26.65;15.98;;;7.30;99.90;;;;;;2080134;28;20427;-73
2022/01/02 01:53:37;;;;;;;27.38;16.50;;;7.30;99.90;;;;;;2080090;28;20030;-75
2022/01/02 01:54:38;;;;;;;28.05;16.83;;;7.20;99.90;;;;;;2088152;28;20029;-71
2022/01/02 01:55:39;;;;;;;23.90;16.23;;;7.20;99.90;;;;;;2088151;28;20650;-71
2022/01/02 01:56:40;;;;;;;24.77;15.95;;;7.20;99.90;;;;;;2088109;28;20036;-75
2022/01/02 01:57:41;;;;;;;24.88;16.90;;;7.20;99.90;;;;;;2079904;28;20025;-73
2022/01/02 01:58:42;;;;;;;27.45;17.45;;;7.20;99.90;;;;;;2079582;28;20064;-73
2022/01/02 01:59:47;;;;;;;29.33;18.20;;;7.20;99.90;;;;;;2071945;28;20021;-71
2022/01/02 02:00:47;;;;;;;31.48;19.58;;;7.20;99.90;;;;;;2080164;28;20485;-71
2022/01/02 02:01:58;;;;;;;30.20;18.80;;;7.10;99.90;;;;;;2080785;28;20095;-74
2022/01/02 02:02:58;;;;;;;27.65;17.63;;;7.10;99.90;;;;;;2088087;28;20025;-73
2022/01/02 02:04:00;;;;;;;26.88;17.95;;;7.10;99.90;;;;;;2079992;28;20180;-71
2022/01/02 02:05:00;;;;;;;29.50;18.65;;;7.10;99.90;;;;;;2079925;28;20078;-72
2022/01/02 02:06:04;;;;;;;29.27;17.65;;;7.10;99.90;;;;;;2088296;28;20025;-70
2022/01/02 02:07:04;;;;;;;25.60;17.40;;;7.10;99.90;;;;;;2087911;28;20021;-72
2022/01/02 02:08:06;;;;;;;24.58;16.85;;;7.10;99.90;;;;;;2088005;28;20041;-72
2022/01/02 02:09:07;;;;;;;24.42;16.30;;;7.00;99.90;;;;;;2087586;28;20083;-72
2022/01/02 02:10:38;;;;;;;30.55;17.70;;;7.00;99.90;;;;;;2087990;28;20033;-72
2022/01/02 02:11:41;;;;;;;26.55;16.02;;;7.00;99.90;;;;;;2087103;28;20086;-73
2022/01/02 02:12:45;;;;;;;24.92;16.00;;;7.00;99.90;;;;;;2088011;28;20024;-75
2022/01/02 02:13:46;;;;;;;23.88;15.63;;;7.00;99.90;;;;;;2088059;28;20043;-73
2022/01/02 02:14:47;;;;;;;23.95;15.85;;;7.00;99.90;;;;;;2088121;28;20789;-73
2022/01/02 02:15:49;;;;;;;24.35;16.00;;;7.00;99.90;;;;;;2088038;28;20108;-72
2022/01/02 02:16:51;;;;;;;23.63;15.90;;;7.00;99.90;;;;;;2087938;28;20033;-73
2022/01/02 02:17:52;;;;;;;26.20;16.30;;;7.00;99.90;;;;;;2079812;28;20064;-75
2022/01/02 02:18:54;;;;;;;27.60;16.80;;;7.10;99.90;;;;;;2087738;28;20041;-72
2022/01/02 02:19:57;;;;;;;26.42;16.73;;;7.00;99.90;;;;;;2087935;28;20078;-74
2022/01/02 02:20:59;;;;;;;29.23;17.58;;;7.00;99.90;;;;;;2088045;28;20036;-71
2022/01/02 02:22:06;;;;;;;30.80;17.45;;;7.00;99.90;;;;;;2087767;28;20025;-72
2022/01/02 02:23:07;;;;;;;32.95;18.48;;;7.10;99.90;;;;;;2088030;28;20483;-73
2022/01/02 02:24:08;;;;;;;28.73;17.13;;;7.10;99.90;;;;;;2087961;28;20025;-76
2022/01/02 02:25:14;;;;;;;30.00;17.80;;;7.10;99.90;;;;;;2088133;28;20104;-73
2022/01/02 02:26:16;;;;;;;30.05;17.35;;;7.10;99.90;;;;;;2087924;28;20036;-74
2022/01/02 02:27:23;;;;;;;29.75;17.58;;;7.10;99.90;;;;;;2079662;28;20030;-75
2022/01/02 02:28:26;;;;;;;29.88;17.40;;;7.20;99.90;;;;;;2080479;28;20028;-74
2022/01/02 02:29:27;;;;;;;30.75;17.42;;;7.20;99.90;;;;;;2071493;28;20022;-72
2022/01/02 02:30:31;;;;;;;37.15;18.98;;;7.20;99.90;;;;;;2079687;28;20029;-72
2022/01/02 02:31:31;;;;;;;38.13;20.13;;;7.20;99.90;;;;;;2088273;28;20028;-75
2022/01/02 02:32:32;;;;;;;35.63;19.52;;;7.20;99.90;;;;;;2079717;28;20064;-73
2022/01/02 02:33:33;;;;;;;36.40;19.20;;;7.20;99.90;;;;;;2079503;28;20033;-73
2022/01/02 02:34:34;;;;;;;34.42;19.30;;;7.30;99.90;;;;;;2088138;28;20032;-74
2022/01/02 02:35:36;;;;;;;33.70;19.13;;;7.30;99.90;;;;;;2087906;28;20025;-73
2022/01/02 02:36:37;;;;;;;33.75;18.23;;;7.30;99.90;;;;;;2087943;28;20088;-74
2022/01/02 02:37:43;;;;;;;33.90;18.65;;;7.30;99.90;;;;;;2079710;28;20029;-74
2022/01/02 02:38:45;;;;;;;33.25;18.02;;;7.20;99.90;;;;;;2080070;28;20140;-74
2022/01/02 02:39:46;;;;;;;28.38;17.17;;;7.30;99.90;;;;;;2071688;28;20026;-73
2022/01/02 02:40:47;;;;;;;30.55;17.35;;;7.30;99.90;;;;;;2071395;28;20751;-72
2022/01/02 02:41:48;;;;;;;27.35;16.70;;;7.30;99.90;;;;;;2079364;28;20035;-73
2022/01/02 02:42:56;;;;;;;31.67;17.58;;;7.30;99.90;;;;;;2080655;28;20163;-73
2022/01/02 02:44:17;;;;;;;28.88;17.15;;;7.20;99.90;;;;;;2089789;28;20092;-73
2022/01/02 02:49:41;;;;;;;20.60;13.32;;;7.30;99.90;;;;;;2089870;28;20574;-72
2022/01/02 02:50:46;;;;;;;21.00;13.35;;;7.30;99.90;;;;;;2089538;28;20025;-73
2022/01/02 02:52:05;;;;;;;18.98;12.65;;;7.30;99.90;;;;;;2081645;28;20455;-75
2022/01/02 02:53:09;;;;;;;20.70;13.02;;;7.30;99.90;;;;;;2084290;28;20032;-72
2022/01/02 02:54:10;;;;;;;18.88;12.38;;;7.30;99.90;;;;;;2081374;28;20033;-73
2022/01/02 02:55:10;;;;;;;18.25;11.70;;;7.40;99.90;;;;;;2089539;28;20029;-72
2022/01/02 02:56:17;;;;;;;18.27;11.40;;;7.40;99.90;;;;;;2089759;28;20025;-72
2022/01/02 02:57:19;;;;;;;18.88;11.65;;;7.30;99.90;;;;;;2090401;28;20040;-72
2022/01/02 02:59:35;;;;;;;16.90;11.52;;;7.40;99.90;;;;;;2083332;28;20033;-73
2022/01/02 03:00:38;;;;;;;15.88;11.25;;;7.40;99.90;;;;;;2081325;28;20036;-72
2022/01/02 03:01:39;;;;;;;18.38;12.25;;;7.40;99.90;;;;;;2089395;28;20029;-73
2022/01/02 03:02:40;;;;;;;17.05;12.00;;;7.40;99.90;;;;;;2089588;28;20035;-72
2022/01/02 03:03:42;;;;;;;16.08;11.43;;;7.40;99.90;;;;;;2089558;28;20075;-72
2022/01/02 03:04:43;;;;;;;20.70;13.13;;;7.40;99.90;;;;;;2089342;28;20528;-73
2022/01/02 03:05:43;;;;;;;20.35;13.57;;;7.40;99.90;;;;;;2089295;28;20081;-73
2022/01/02 03:06:44;;;;;;;19.13;12.27;;;7.40;99.90;;;;;;2089378;28;20179;-73
2022/01/02 03:07:45;;;;;;;18.00;12.85;;;7.40;99.90;;;;;;2081343;28;20025;-73
2022/01/02 03:08:47;;;;;;;20.60;13.32;;;7.40;99.90;;;;;;2088931;28;20025;-73
2022/01/02 03:09:50;;;;;;;20.33;12.73;;;7.40;99.90;;;;;;2090186;28;20013;-73
2022/01/02 03:10:53;;;;;;;19.08;13.02;;;7.40;99.90;;;;;;2089491;28;20032;-71
2022/01/02 03:11:54;;;;;;;19.45;12.95;;;7.40;99.90;;;;;;2080977;28;20458;-74
2022/01/02 03:12:54;;;;;;;19.05;13.25;;;7.40;99.90;;;;;;2073144;28;20113;-74
2022/01/02 03:13:55;;;;;;;18.52;12.40;;;7.30;99.90;;;;;;2081225;28;20095;-73
2022/01/02 03:14:56;;;;;;;23.08;14.10;;;7.40;99.90;;;;;;2089490;28;20021;-72
2022/01/02 03:15:56;;;;;;;20.27;13.07;;;7.30;99.90;;;;;;2081278;28;20029;-72
2022/01/02 03:16:57;;;;;;;21.17;13.57;;;7.30;99.90;;;;;;2081347;28;20511;-73
2022/01/02 03:17:59;;;;;;;19.45;13.48;;;7.30;99.90;;;;;;2089425;28;20108;-71
2022/01/02 03:19:00;;;;;;;21.05;13.70;;;7.30;99.90;;;;;;2088978;28;20508;-72
2022/01/02 03:20:00;;;;;;;23.10;14.20;;;7.30;99.90;;;;;;2089256;28;20025;-74
2022/01/02 03:21:02;;;;;;;21.70;13.90;;;7.30;99.90;;;;;;2089291;28;20059;-74
2022/01/02 03:22:07;;;;;;;18.58;13.30;;;7.20;99.90;;;;;;2080716;28;20026;-74
2022/01/02 03:23:08;;;;;;;22.17;13.38;;;7.20;99.90;;;;;;2081136;28;20700;-73
2022/01/02 03:24:09;;;;;;;19.52;13.23;;;7.20;99.90;;;;;;2072952;28;20030;-72
2022/01/02 03:25:13;;;;;;;19.63;12.93;;;7.20;99.90;;;;;;2089474;28;20408;-72
2022/01/02 03:26:15;;;;;;;19.15;13.05;;;7.20;99.90;;;;;;2089382;28;20060;-73
2022/01/02 03:27:16;;;;;;;18.63;13.07;;;7.20;99.90;;;;;;2081020;28;20497;-73
2022/01/02 03:28:17;;;;;;;19.55;13.30;;;7.20;99.90;;;;;;2089301;28;20032;-71
2022/01/02 03:29:17;;;;;;;20.45;13.43;;;7.20;99.90;;;;;;2080678;28;20017;-71
2022/01/02 03:30:18;;;;;;;22.25;13.95;;;7.10;99.90;;;;;;2089254;28;20021;-71
2022/01/02 03:31:19;;;;;;;18.52;12.70;;;7.10;99.90;;;;;;2081020;28;20037;-71
2022/01/02 03:32:20;;;;;;;19.55;13.40;;;7.10;99.90;;;;;;2089042;28;20029;-72
2022/01/02 03:33:21;;;;;;;19.20;13.13;;;7.10;99.90;;;;;;2089306;28;20029;-71
2022/01/02 03:34:22;;;;;;;20.80;13.60;;;7.10;99.90;;;;;;2089242;28;20104;-71
2022/01/02 03:35:24;;;;;;;20.27;12.80;;;7.00;99.90;;;;;;2089307;28;20025;-71
2022/01/02 03:36:24;;;;;;;21.13;13.77;;;7.00;99.90;;;;;;2080985;28;20029;-72
2022/01/02 03:37:28;;;;;;;18.85;13.02;;;7.00;99.90;;;;;;2089195;28;20434;-74
2022/01/02 03:38:29;;;;;;;22.08;13.90;;;6.90;99.90;;;;;;2081129;28;20032;-74
2022/01/02 03:39:30;;;;;;;19.90;13.32;;;6.90;99.90;;;;;;2088820;28;20040;-73
2022/01/02 03:40:31;;;;;;;19.02;13.52;;;6.90;99.90;;;;;;2089230;28;20057;-73
2022/01/02 03:41:31;;;;;;;19.52;13.13;;;6.80;99.90;;;;;;2088763;28;20032;-73
2022/01/02 03:42:34;;;;;;;19.58;13.88;;;6.80;99.90;;;;;;2089205;28;20048;-73
2022/01/02 03:43:34;;;;;;;19.10;13.00;;;6.80;99.90;;;;;;2081304;28;20116;-73
2022/01/02 03:44:35;;;;;;;18.63;12.93;;;6.80;99.90;;;;;;2080885;28;20025;-74
2022/01/02 03:45:37;;;;;;;18.65;12.70;;;6.80;99.90;;;;;;2081157;28;20032;-74
2022/01/02 03:46:39;;;;;;;19.88;12.85;;;6.80;99.90;;;;;;2081143;28;20527;-74
2022/01/02 03:47:42;;;;;;;17.77;12.60;;;6.80;99.90;;;;;;2089155;28;20021;-74
2022/01/02 03:48:44;;;;;;;17.63;12.13;;;6.90;99.90;;;;;;2080841;28;20029;-73
2022/01/02 03:49:47;;;;;;;18.90;12.88;;;6.80;99.90;;;;;;2073060;28;20601;-72
2022/01/02 03:50:49;;;;;;;18.15;12.13;;;6.90;99.90;;;;;;2080974;28;20033;-73
2022/01/02 03:51:51;;;;;;;16.77;12.25;;;6.90;99.90;;;;;;2080718;28;20061;-74
2022/01/02 03:52:53;;;;;;;19.23;12.63;;;6.90;99.90;;;;;;2088911;28;20047;-74
2022/01/02 03:53:55;;;;;;;17.83;12.40;;;6.90;99.90;;;;;;2080524;28;20021;-72
2022/01/02 03:54:58;;;;;;;19.52;12.65;;;6.90;99.90;;;;;;2089255;28;20032;-75
2022/01/02 03:55:58;;;;;;;18.48;12.18;;;6.90;99.90;;;;;;2089416;28;20530;-71
2022/01/02 03:57:02;;;;;;;16.25;11.68;;;6.90;99.90;;;;;;2083206;28;20584;-71
2022/01/02 03:58:04;;;;;;;19.70;12.40;;;6.90;99.90;;;;;;2090363;28;20033;-72
2022/01/02 03:59:05;;;;;;;17.90;12.30;;;6.90;99.90;;;;;;2090327;28;20028;-71
2022/01/02 04:00:11;;;;;;;18.10;12.18;;;6.90;99.90;;;;;;2081635;28;20654;-71
2022/01/02 04:01:14;;;;;;;18.95;12.13;;;7.00;99.90;;;;;;2089372;28;20036;-71
2022/01/02 04:02:15;;;;;;;19.80;12.60;;;6.90;99.90;;;;;;2080672;28;20028;-71
2022/01/02 04:03:16;;;;;;;17.17;11.38;;;7.00;99.90;;;;;;2088842;28;20033;-72
2022/01/02 04:04:17;;;;;;;15.45;11.38;;;7.00;99.90;;;;;;2088985;28;20021;-74
2022/01/02 04:05:17;;;;;;;17.73;11.88;;;7.00;99.90;;;;;;2089183;28;20025;-73
2022/01/02 04:06:21;;;;;;;16.23;11.23;;;6.90;99.90;;;;;;2088921;28;20058;-73
2022/01/02 04:07:21;;;;;;;17.05;11.40;;;6.90;99.90;;;;;;2089021;28;20451;-73
2022/01/02 04:08:22;;;;;;;16.50;11.43;;;6.90;99.90;;;;;;2088897;28;20587;-74
2022/01/02 04:09:25;;;;;;;16.48;11.50;;;6.90;99.90;;;;;;2080638;28;20109;-73
2022/01/02 04:10:27;;;;;;;17.63;11.38;;;6.90;99.90;;;;;;2072682;28;20029;-73
2022/01/02 04:11:30;;;;;;;18.58;12.00;;;6.90;99.90;;;;;;2080341;28;20025;-73
2022/01/02 04:12:32;;;;;;;17.27;11.25;;;6.90;99.90;;;;;;2072700;28;20033;-73
2022/01/02 04:13:33;;;;;;;19.42;12.02;;;6.90;99.90;;;;;;2081204;28;20048;-74
2022/01/02 04:14:35;;;;;;;19.17;12.00;;;6.90;99.90;;;;;;2088991;28;20021;-73
2022/01/02 04:15:38;;;;;;;17.10;11.40;;;6.90;99.90;;;;;;2081014;28;20033;-72
2022/01/02 04:16:41;;;;;;;17.98;11.68;;;6.80;99.90;;;;;;2088993;28;20424;-73
2022/01/02 04:17:43;;;;;;;18.58;11.65;;;6.80;99.90;;;;;;2088861;28;20123;-73
2022/01/02 04:18:46;;;;;;;17.45;11.82;;;6.80;99.90;;;;;;2080520;28;20034;-73
2022/01/02 04:19:48;;;;;;;18.63;11.52;;;6.80;99.90;;;;;;2080829;28;20555;-72
2022/01/02 04:20:50;;;;;;;18.38;12.40;;;6.80;99.90;;;;;;2088722;28;20794;-72
2022/01/02 04:21:53;;;;;;;17.13;12.00;;;6.80;99.90;;;;;;2088615;28;20110;-72
2022/01/02 04:22:54;;;;;;;18.38;12.48;;;6.70;99.90;;;;;;2089112;28;20033;-72
2022/01/02 04:23:55;;;;;;;17.58;12.20;;;6.70;99.90;;;;;;2088908;28;20079;-73
2022/01/02 04:24:56;;;;;;;18.33;12.25;;;6.70;99.90;;;;;;2080711;28;20026;-73
2022/01/02 04:25:57;;;;;;;19.58;12.73;;;6.70;99.90;;;;;;2088758;28;20124;-73
2022/01/02 04:26:58;;;;;;;17.08;12.13;;;6.70;99.90;;;;;;2080579;28;20048;-73
2022/01/02 04:27:59;;;;;;;19.48;12.65;;;6.70;99.90;;;;;;2080432;28;20025;-73
2022/01/02 04:28:59;;;;;;;17.73;12.60;;;6.60;99.90;;;;;;2080108;28;20022;-73
2022/01/02 04:30:00;;;;;;;18.73;12.15;;;6.60;99.90;;;;;;2080671;28;20049;-71
2022/01/02 04:31:02;;;;;;;19.35;12.60;;;6.60;99.90;;;;;;2088841;28;20447;-71
2022/01/02 04:32:05;;;;;;;18.33;12.23;;;6.60;99.90;;;;;;2088500;28;20032;-72
2022/01/02 04:33:05;;;;;;;17.55;11.90;;;6.60;99.90;;;;;;2088886;28;20240;-73
2022/01/02 04:34:06;;;;;;;18.63;12.30;;;6.60;99.90;;;;;;2088909;28;20098;-74
2022/01/02 04:35:07;;;;;;;18.65;12.52;;;6.50;99.90;;;;;;2088747;28;20389;-72
2022/01/02 04:36:08;;;;;;;18.48;12.40;;;6.50;99.90;;;;;;2088737;28;20408;-73
2022/01/02 04:37:10;;;;;;;17.85;12.07;;;6.50;99.90;;;;;;2088769;28;20043;-74
2022/01/02 04:38:13;;;;;;;19.98;12.93;;;6.50;99.90;;;;;;2088720;28;20033;-75
2022/01/02 04:39:14;;;;;;;18.00;12.52;;;6.50;99.90;;;;;;2088223;28;20116;-74
2022/01/02 04:40:15;;;;;;;16.17;11.77;;;6.50;99.90;;;;;;2080601;28;20029;-71
2022/01/02 04:41:16;;;;;;;17.08;12.25;;;6.50;99.90;;;;;;2072292;28;20085;-71
2022/01/02 04:42:17;;;;;;;17.83;11.82;;;6.50;99.90;;;;;;2072001;28;20389;-71
2022/01/02 04:43:18;;;;;;;18.38;12.57;;;6.50;99.90;;;;;;2088907;28;20834;-70
2022/01/02 04:44:19;;;;;;;17.27;11.68;;;6.50;99.90;;;;;;2088657;28;20116;-71
2022/01/02 04:45:20;;;;;;;17.73;12.02;;;6.50;99.90;;;;;;2088803;28;20017;-71
2022/01/02 04:46:22;;;;;;;17.33;12.00;;;6.50;99.90;;;;;;2080401;28;20028;-71
2022/01/02 04:47:23;;;;;;;20.23;12.65;;;6.50;99.90;;;;;;2072465;28;20116;-70
2022/01/02 04:48:23;;;;;;;17.30;11.55;;;6.50;99.90;;;;;;2088679;28;20025;-70
2022/01/02 04:49:24;;;;;;;18.15;12.13;;;6.40;99.90;;;;;;2088212;28;20025;-71
2022/01/02 04:50:25;;;;;;;17.45;12.13;;;6.40;99.90;;;;;;2088676;28;20519;-73
2022/01/02 04:51:26;;;;;;;17.90;12.32;;;6.40;99.90;;;;;;2088341;28;20195;-72
2022/01/02 04:52:27;;;;;;;18.35;11.98;;;6.40;99.90;;;;;;2080374;28;20032;-72
2022/01/02 04:53:30;;;;;;;22.55;13.95;;;6.40;99.90;;;;;;2072215;28;20692;-72
2022/01/02 04:54:30;;;;;;;17.33;12.27;;;6.40;99.90;;;;;;2072561;28;20030;-72
2022/01/02 04:55:31;;;;;;;17.73;11.98;;;6.50;99.90;;;;;;2072252;28;20065;-72
2022/01/02 04:56:32;;;;;;;18.17;12.18;;;6.50;99.90;;;;;;2080154;28;20044;-72
2022/01/02 04:57:34;;;;;;;17.65;12.10;;;6.50;99.90;;;;;;2080347;28;20022;-72
2022/01/02 04:58:35;;;;;;;17.10;12.10;;;6.50;99.90;;;;;;2079892;28;20029;-73
2022/01/02 04:59:37;;;;;;;15.90;10.95;;;6.50;99.90;;;;;;2080318;28;20037;-73
2022/01/02 05:00:38;;;;;;;19.55;13.13;;;6.50;99.90;;;;;;2088594;28;20021;-72
2022/01/02 05:01:38;;;;;;;21.75;13.48;;;6.50;99.90;;;;;;2080062;28;20033;-71
2022/01/02 05:02:39;;;;;;;21.73;13.90;;;6.50;99.90;;;;;;2080321;28;20018;-72
2022/01/02 05:03:41;;;;;;;21.17;14.02;;;6.50;99.90;;;;;;2088630;28;20053;-73
2022/01/02 05:04:41;;;;;;;21.90;13.95;;;6.60;99.90;;;;;;2088247;28;20471;-72
2022/01/02 05:05:43;;;;;;;18.48;13.13;;;6.60;99.90;;;;;;2088023;28;20025;-72
2022/01/02 05:06:44;;;;;;;20.50;12.82;;;6.60;99.90;;;;;;2088537;28;20435;-73
2022/01/02 05:07:45;;;;;;;18.95;12.40;;;6.60;99.90;;;;;;2080334;28;20057;-72
2022/01/02 05:08:46;;;;;;;17.05;12.13;;;6.60;99.90;;;;;;2087938;28;20025;-72
2022/01/02 05:09:47;;;;;;;18.25;12.10;;;6.70;99.90;;;;;;2080328;28;20030;-72
2022/01/02 05:10:48;;;;;;;16.85;11.90;;;6.70;99.90;;;;;;2080389;28;20076;-72
2022/01/02 05:11:48;;;;;;;17.10;11.88;;;6.70;99.90;;;;;;2088226;28;20021;-72
2022/01/02 05:12:49;;;;;;;15.73;11.38;;;6.70;99.90;;;;;;2089134;28;20048;-74
2022/01/02 05:13:51;;;;;;;16.05;11.57;;;6.70;99.90;;;;;;2088419;28;20660;-72
2022/01/02 05:14:53;;;;;;;16.77;11.27;;;6.70;99.90;;;;;;2072042;28;20071;-73
2022/01/02 05:15:54;;;;;;;15.88;11.35;;;6.70;99.90;;;;;;2072438;28;20036;-74
2022/01/02 05:16:56;;;;;;;16.83;11.27;;;6.70;99.90;;;;;;2080236;28;20033;-72
2022/01/02 05:17:59;;;;;;;16.90;12.27;;;6.70;99.90;;;;;;2080337;28;20029;-72
2022/01/02 05:19:02;;;;;;;17.00;11.93;;;6.70;99.90;;;;;;2079781;28;20025;-72
2022/01/02 05:20:06;;;;;;;18.27;12.48;;;6.70;99.90;;;;;;2088411;28;20045;-74
2022/01/02 05:21:08;;;;;;;22.08;14.10;;;6.70;99.90;;;;;;2080185;28;20580;-72
2022/01/02 05:22:10;;;;;;;19.23;13.32;;;6.70;99.90;;;;;;2088018;28;20529;-72
2022/01/02 05:23:11;;;;;;;19.42;13.13;;;6.70;99.90;;;;;;2080168;28;20029;-73
2022/01/02 05:24:13;;;;;;;19.95;13.30;;;6.70;99.90;;;;;;2072322;28;20029;-72
2022/01/02 05:25:16;;;;;;;17.48;12.65;;;6.70;99.90;;;;;;2080536;28;20013;-72
2022/01/02 05:26:18;;;;;;;18.65;12.43;;;6.70;99.90;;;;;;2088304;28;20429;-72
2022/01/02 05:27:20;;;;;;;18.92;13.02;;;6.70;99.90;;;;;;2080292;28;20056;-72
2022/01/02 05:28:23;;;;;;;22.67;13.10;;;6.70;99.90;;;;;;2088251;28;20076;-73
2022/01/02 05:29:25;;;;;;;18.38;13.07;;;6.70;99.90;;;;;;2087972;28;20508;-72
2022/01/02 05:30:27;;;;;;;19.10;12.93;;;6.70;99.90;;;;;;2088237;28;20114;-73